createdAt,value
2022-12-19T00:01:32.175Z,45.50
2022-12-19T00:03:59.787Z,45.50
2022-12-19T00:06:26.895Z,45.40
2022-12-19T00:08:53.822Z,45.50
2022-12-19T00:11:21.023Z,45.40
2022-12-19T00:13:47.712Z,45.40
2022-12-19T00:16:15.295Z,45.50
2022-12-19T00:18:44.703Z,45.40
2022-12-19T00:21:12.070Z,45.30
2022-12-19T00:23:38.787Z,45.30
2022-12-19T00:26:12.921Z,45.30
2022-12-19T00:28:39.834Z,45.30
2022-12-19T00:31:06.819Z,45.20
2022-12-19T00:33:33.537Z,45.20
2022-12-19T00:36:03.527Z,45.20
2022-12-19T00:38:30.254Z,45.20
2022-12-19T00:41:15.967Z,45.10
2022-12-19T00:43:44.052Z,45.10
2022-12-19T00:46:14.571Z,45.00
2022-12-19T00:48:41.512Z,45.10
2022-12-19T00:51:10.064Z,45.10
2022-12-19T00:53:36.747Z,45.10
2022-12-19T00:56:04.032Z,45.30
2022-12-19T00:58:34.481Z,45.20
2022-12-19T01:01:06.228Z,45.10
2022-12-19T01:03:33.002Z,45.30
2022-12-19T01:05:59.777Z,45.20
2022-12-19T01:08:26.771Z,45.30
2022-12-19T01:10:54.339Z,45.20
2022-12-19T01:13:22.017Z,45.20
2022-12-19T01:15:48.778Z,45.30
2022-12-19T01:18:15.522Z,45.30
2022-12-19T01:20:43.645Z,45.30
2022-12-19T01:23:10.480Z,45.20
2022-12-19T01:25:37.937Z,45.30
2022-12-19T01:28:07.293Z,45.20
2022-12-19T01:30:34.112Z,45.10
2022-12-19T01:33:02.125Z,45.10
2022-12-19T01:35:28.843Z,45.10
2022-12-19T01:38:04.697Z,45.00
2022-12-19T01:40:35.411Z,45.00
2022-12-19T01:43:02.315Z,45.00
2022-12-19T01:45:34.920Z,45.00
2022-12-19T01:48:15.053Z,44.90
2022-12-19T01:51:00.711Z,45.00
2022-12-19T01:53:29.392Z,44.90
2022-12-19T01:55:56.095Z,44.90
2022-12-19T01:58:22.744Z,44.80
2022-12-19T02:00:49.589Z,44.80
2022-12-19T02:03:22.270Z,44.90
2022-12-19T02:05:49.001Z,44.80
2022-12-19T02:08:15.727Z,44.90
2022-12-19T02:10:42.464Z,44.90
2022-12-19T02:13:09.155Z,44.80
2022-12-19T02:15:40.611Z,44.90
2022-12-19T02:18:16.503Z,44.90
2022-12-19T02:21:01.655Z,44.90
2022-12-19T02:23:46.634Z,44.90
2022-12-19T02:26:22.461Z,45.00
2022-12-19T02:29:06.011Z,44.90
2022-12-19T02:31:33.613Z,44.90
2022-12-19T02:34:06.417Z,45.00
2022-12-19T02:36:38.511Z,45.00
2022-12-19T02:39:08.856Z,45.10
2022-12-19T02:41:43.343Z,44.90
2022-12-19T02:44:14.056Z,44.90
2022-12-19T02:46:41.839Z,44.80
2022-12-19T02:49:10.559Z,44.80
2022-12-19T02:51:37.657Z,44.80
2022-12-19T02:54:04.384Z,44.70
2022-12-19T02:56:31.105Z,44.70
2022-12-19T02:59:07.082Z,44.60
2022-12-19T03:01:47.881Z,44.60
2022-12-19T03:04:15.959Z,44.50
2022-12-19T03:06:45.360Z,44.50
2022-12-19T03:09:28.679Z,44.50
2022-12-19T03:11:57.794Z,44.50
2022-12-19T03:14:24.464Z,44.60
2022-12-19T03:16:51.306Z,44.50
2022-12-19T03:19:18.047Z,44.50
2022-12-19T03:21:45.477Z,44.60
2022-12-19T03:24:12.417Z,44.60
2022-12-19T03:26:42.550Z,44.70
2022-12-19T03:29:10.864Z,44.60
2022-12-19T03:31:37.637Z,44.60
2022-12-19T03:34:12.438Z,44.50
2022-12-19T03:36:49.564Z,44.50
2022-12-19T03:39:16.271Z,44.50
2022-12-19T03:42:01.702Z,44.50
2022-12-19T03:44:28.870Z,44.50
2022-12-19T03:46:58.676Z,44.40
2022-12-19T03:49:26.128Z,44.40
2022-12-19T03:51:59.614Z,44.50
2022-12-19T03:54:30.612Z,44.40
2022-12-19T03:57:01.397Z,44.40
2022-12-19T03:59:31.101Z,44.30
2022-12-19T04:01:57.860Z,44.30
2022-12-19T04:04:25.910Z,44.20
2022-12-19T04:06:52.661Z,44.90
2022-12-19T04:09:22.613Z,44.20
2022-12-19T04:11:53.919Z,44.10
2022-12-19T04:14:23.063Z,44.20
2022-12-19T04:17:09.782Z,44.20
2022-12-19T04:19:42.430Z,44.20
2022-12-19T04:22:14.645Z,44.20
2022-12-19T04:24:41.401Z,44.20
2022-12-19T04:27:08.122Z,44.30
2022-12-19T04:29:35.261Z,44.10
2022-12-19T04:32:02.245Z,44.20
2022-12-19T04:34:28.921Z,44.10
2022-12-19T04:36:55.592Z,44.20
2022-12-19T04:39:22.283Z,44.20
2022-12-19T04:41:49.375Z,44.20
2022-12-19T04:44:16.028Z,44.20
2022-12-19T04:46:42.736Z,44.10
2022-12-19T04:49:09.403Z,44.20
2022-12-19T04:51:36.492Z,44.30
2022-12-19T04:54:06.287Z,44.20
2022-12-19T04:56:32.943Z,44.20
2022-12-19T04:58:59.868Z,44.10
2022-12-19T05:01:26.818Z,44.00
2022-12-19T05:03:56.610Z,44.10
2022-12-19T05:06:25.389Z,44.00
2022-12-19T05:08:52.064Z,44.10
2022-12-19T05:11:19.983Z,44.00
2022-12-19T05:13:46.812Z,44.00
2022-12-19T05:16:13.621Z,44.00
2022-12-19T05:18:40.617Z,44.00
2022-12-19T05:21:07.487Z,44.00
2022-12-19T05:23:34.279Z,44.00
2022-12-19T05:26:01.233Z,44.00
2022-12-19T05:28:28.008Z,44.00
2022-12-19T05:31:04.672Z,44.00
2022-12-19T05:33:31.465Z,44.10
2022-12-19T05:35:58.136Z,44.00
2022-12-19T05:38:25.615Z,44.00
2022-12-19T05:40:52.268Z,44.00
2022-12-19T05:43:18.950Z,44.00
2022-12-19T05:45:45.630Z,44.10
2022-12-19T05:48:13.445Z,44.00
2022-12-19T05:50:40.162Z,44.10
2022-12-19T05:53:07.627Z,44.00
2022-12-19T05:55:34.427Z,44.00
2022-12-19T05:58:01.101Z,44.00
2022-12-19T06:00:27.760Z,44.00
2022-12-19T06:02:54.849Z,44.00
2022-12-19T06:05:21.625Z,44.00
2022-12-19T06:07:48.283Z,44.10
2022-12-19T06:10:14.940Z,43.30
2022-12-19T06:12:41.631Z,44.00
2022-12-19T06:15:08.715Z,44.00
2022-12-19T06:17:35.448Z,44.20
2022-12-19T06:20:02.128Z,44.10
2022-12-19T06:22:28.778Z,44.10
2022-12-19T06:24:55.432Z,44.10
2022-12-19T06:27:22.098Z,44.10
2022-12-19T06:29:50.112Z,44.10
2022-12-19T06:32:16.807Z,44.10
2022-12-19T06:37:30.106Z,44.10
2022-12-19T06:39:56.771Z,44.10
2022-12-19T06:42:23.526Z,44.10
2022-12-19T06:44:50.828Z,44.00
2022-12-19T06:47:17.638Z,44.00
2022-12-19T06:49:44.343Z,44.10
2022-12-19T06:52:11.025Z,44.10
2022-12-19T06:54:37.790Z,44.00
2022-12-19T06:57:04.449Z,44.00
2022-12-19T06:59:31.117Z,44.10
2022-12-19T07:01:58.674Z,44.10
2022-12-19T07:04:32.740Z,44.00
2022-12-19T07:06:59.519Z,44.10
2022-12-19T07:09:27.028Z,44.00
2022-12-19T07:11:54.783Z,44.10
2022-12-19T07:14:21.492Z,44.10
2022-12-19T07:16:48.661Z,44.00
2022-12-19T07:19:15.325Z,44.10
2022-12-19T07:21:43.818Z,44.10
2022-12-19T07:24:11.317Z,44.10
2022-12-19T07:26:41.787Z,44.00
2022-12-19T07:29:09.014Z,43.90
2022-12-19T07:31:35.990Z,43.90
2022-12-19T07:34:02.741Z,43.80
2022-12-19T07:36:29.405Z,43.90
2022-12-19T07:38:56.082Z,44.00
2022-12-19T07:41:22.850Z,43.70
2022-12-19T07:43:49.524Z,43.80
2022-12-19T07:46:16.291Z,43.80
2022-12-19T07:48:43.103Z,43.70
2022-12-19T07:51:09.829Z,43.80
2022-12-19T07:53:36.489Z,43.80
2022-12-19T07:56:03.169Z,43.90
2022-12-19T07:58:30.323Z,43.80
2022-12-19T08:00:57.492Z,43.80
2022-12-19T08:03:24.543Z,43.70
2022-12-19T08:05:51.350Z,43.80
2022-12-19T08:08:18.048Z,43.80
2022-12-19T08:10:44.729Z,43.80
2022-12-19T08:13:11.388Z,43.80
2022-12-19T08:15:38.064Z,43.90
2022-12-19T08:18:04.730Z,43.80
2022-12-19T08:20:31.398Z,43.80
2022-12-19T08:22:58.000Z,43.80
2022-12-19T08:25:24.686Z,43.80
2022-12-19T08:27:51.346Z,43.80
2022-12-19T08:30:18.898Z,43.80
2022-12-19T08:32:45.927Z,43.70
2022-12-19T08:35:12.674Z,43.70
2022-12-19T08:37:39.575Z,43.70
2022-12-19T08:40:07.087Z,43.70
2022-12-19T08:42:33.834Z,43.50
2022-12-19T08:45:00.541Z,43.60
2022-12-19T08:47:27.229Z,43.40
2022-12-19T08:49:53.958Z,43.50
2022-12-19T08:52:20.631Z,43.40
2022-12-19T08:54:48.349Z,43.40
2022-12-19T08:57:15.477Z,43.40
2022-12-19T08:59:42.156Z,43.40
2022-12-19T09:02:09.835Z,43.40
2022-12-19T09:05:58.840Z,43.30
2022-12-19T09:07:24.318Z,43.40
2022-12-19T09:09:51.010Z,43.40
2022-12-19T09:12:17.725Z,43.30
2022-12-19T09:14:44.510Z,43.50
2022-12-19T09:17:11.295Z,43.40
2022-12-19T09:19:38.050Z,43.50
2022-12-19T09:22:05.711Z,43.50
2022-12-19T09:24:32.427Z,43.40
2022-12-19T09:26:59.276Z,43.40
2022-12-19T09:29:26.578Z,43.50
2022-12-19T09:31:56.218Z,43.40
2022-12-19T09:34:37.123Z,43.40
2022-12-19T09:37:06.556Z,43.40
2022-12-19T09:39:34.291Z,43.50
2022-12-19T09:42:01.046Z,43.50
2022-12-19T09:44:31.508Z,43.50
2022-12-19T09:47:02.424Z,43.40
2022-12-19T09:49:45.346Z,43.50
2022-12-19T09:52:13.701Z,43.40
2022-12-19T09:54:43.384Z,43.40
2022-12-19T09:57:30.403Z,43.40
2022-12-19T09:59:57.928Z,43.30
2022-12-19T10:02:43.735Z,43.30
2022-12-19T10:05:44.748Z,43.30
2022-12-19T10:08:09.410Z,43.30
2022-12-19T10:12:36.543Z,43.30
2022-12-19T10:13:57.569Z,43.30
2022-12-19T10:16:24.652Z,43.30
2022-12-19T10:18:56.457Z,43.30
2022-12-19T10:22:16.284Z,43.30
2022-12-19T10:25:08.521Z,43.30
2022-12-19T10:27:58.790Z,43.40
2022-12-19T10:30:29.101Z,43.30
2022-12-19T10:33:19.902Z,43.30
2022-12-19T10:35:49.372Z,43.30
2022-12-19T10:38:22.460Z,43.40
2022-12-19T10:40:51.700Z,43.30
2022-12-19T10:43:40.969Z,43.40
2022-12-19T10:46:13.051Z,43.30
2022-12-19T10:48:39.776Z,43.30
2022-12-19T10:51:10.853Z,43.40
2022-12-19T10:53:37.553Z,43.30
2022-12-19T10:56:13.915Z,43.40
2022-12-19T10:58:42.423Z,43.30
2022-12-19T11:01:13.512Z,43.30
2022-12-19T11:03:41.860Z,43.30
2022-12-19T11:06:29.326Z,43.30
2022-12-19T11:09:00.872Z,43.30
2022-12-19T11:12:35.611Z,43.30
2022-12-19T11:18:27.698Z,43.30
2022-12-19T11:27:05.480Z,43.50
2022-12-19T11:29:27.343Z,43.40
2022-12-19T11:29:41.076Z,43.50
2022-12-19T11:30:42.985Z,43.40
2022-12-19T11:30:46.433Z,43.60
2022-12-19T11:34:23.566Z,43.40
2022-12-19T11:37:00.265Z,43.50
2022-12-19T11:39:35.404Z,43.40
2022-12-19T11:42:20.538Z,43.40
2022-12-19T11:45:07.055Z,43.50
2022-12-19T11:47:41.147Z,43.40
2022-12-19T11:50:24.621Z,43.40
2022-12-19T11:53:11.519Z,43.30
2022-12-19T11:55:44.620Z,43.60
2022-12-19T11:58:11.748Z,43.50
2022-12-19T12:00:45.752Z,43.40
2022-12-19T12:03:18.740Z,43.40
2022-12-19T12:05:48.965Z,43.50
2022-12-19T12:09:30.471Z,43.70
2022-12-19T12:17:58.503Z,43.60
2022-12-19T12:24:58.865Z,43.60
2022-12-19T12:31:01.643Z,43.50
2022-12-19T12:31:05.395Z,43.50
2022-12-19T12:31:46.813Z,43.50
2022-12-19T12:31:49.677Z,43.50
2022-12-19T12:31:57.035Z,43.40
2022-12-19T12:35:34.979Z,43.50
2022-12-19T12:40:29.195Z,43.60
2022-12-19T12:42:55.860Z,43.50
2022-12-19T12:45:27.457Z,43.50
2022-12-19T12:47:54.190Z,43.50
2022-12-19T12:50:21.518Z,43.60
2022-12-19T12:52:49.377Z,43.50
2022-12-19T12:55:32.682Z,43.60
2022-12-19T12:57:59.462Z,43.50
2022-12-19T13:00:35.831Z,43.50
2022-12-19T13:03:18.239Z,43.60
2022-12-19T13:05:52.825Z,43.40
2022-12-19T13:08:26.020Z,43.50
2022-12-19T13:10:53.343Z,43.50
2022-12-19T13:13:25.754Z,43.60
2022-12-19T13:15:52.647Z,43.40
2022-12-19T13:18:35.506Z,43.40
2022-12-19T13:21:02.802Z,43.50
2022-12-19T13:23:29.479Z,43.40
2022-12-19T13:25:56.186Z,43.40
2022-12-19T13:28:22.854Z,43.40
2022-12-19T13:31:16.128Z,43.40
2022-12-19T13:33:47.396Z,43.40
2022-12-19T13:39:55.542Z,43.40
2022-12-19T13:40:01.200Z,43.40
2022-12-19T13:42:52.077Z,43.50
2022-12-19T13:45:36.865Z,43.50
2022-12-19T13:48:05.210Z,43.70
2022-12-19T13:50:37.513Z,43.70
2022-12-19T13:53:20.277Z,43.70
2022-12-19T13:55:47.007Z,43.80
2022-12-19T13:58:21.724Z,43.70
2022-12-19T14:00:57.280Z,43.80
2022-12-19T14:03:33.070Z,43.60
2022-12-19T14:06:16.561Z,43.70
2022-12-19T14:08:46.012Z,43.70
2022-12-19T14:11:48.710Z,43.50
2022-12-19T14:14:25.509Z,43.60
2022-12-19T14:16:54.474Z,43.60
2022-12-19T14:19:22.794Z,43.60
2022-12-19T14:22:04.809Z,43.50
2022-12-19T14:24:36.148Z,43.70
2022-12-19T14:28:21.102Z,43.60
2022-12-19T14:30:29.765Z,43.60
2022-12-19T14:33:44.838Z,43.50
2022-12-19T14:36:07.847Z,43.50
2022-12-19T14:39:24.766Z,43.50
2022-12-19T14:41:09.599Z,43.40
2022-12-19T14:44:00.462Z,43.40
2022-12-19T14:52:51.806Z,43.40
2022-12-19T14:54:01.703Z,43.40
2022-12-19T14:54:26.182Z,43.40
2022-12-19T14:56:12.460Z,43.40
2022-12-19T14:58:56.041Z,43.40
2022-12-19T15:01:29.845Z,43.50
2022-12-19T15:04:51.240Z,43.50
2022-12-19T15:07:07.490Z,43.40
2022-12-19T15:10:59.799Z,43.40
2022-12-19T15:14:46.966Z,43.50
2022-12-19T15:15:45.614Z,43.50
2022-12-19T15:18:36.060Z,43.50
2022-12-19T15:21:04.084Z,43.00
2022-12-19T15:23:30.818Z,43.40
2022-12-19T15:26:05.308Z,43.30
2022-12-19T15:28:40.618Z,43.40
2022-12-19T15:31:11.177Z,43.40
2022-12-19T15:33:59.800Z,43.30
2022-12-19T15:36:25.547Z,43.40
2022-12-19T15:38:52.190Z,43.20
2022-12-19T15:41:22.816Z,43.10
2022-12-19T15:44:03.533Z,43.20
2022-12-19T15:46:31.493Z,43.10
2022-12-19T15:48:58.218Z,43.10
2022-12-19T15:51:24.898Z,43.10
2022-12-19T15:53:51.573Z,43.10
2022-12-19T15:56:24.462Z,43.20
2022-12-19T15:58:51.491Z,43.20
2022-12-19T16:01:18.259Z,43.20
2022-12-19T16:03:45.199Z,43.20
2022-12-19T16:06:13.413Z,43.30
2022-12-19T16:08:40.322Z,43.30
2022-12-19T16:11:09.685Z,43.00
2022-12-19T16:13:36.417Z,43.30
2022-12-19T16:16:05.425Z,43.20
2022-12-19T16:18:37.667Z,43.40
2022-12-19T16:21:05.458Z,43.20
2022-12-19T16:23:32.377Z,43.20
2022-12-19T16:26:00.247Z,43.30
2022-12-19T16:28:29.279Z,43.10
2022-12-19T16:30:59.258Z,43.30
2022-12-19T16:33:27.877Z,43.20
2022-12-19T16:36:04.169Z,43.40
2022-12-19T16:38:32.374Z,43.40
2022-12-19T16:40:59.151Z,43.40
2022-12-19T16:43:29.332Z,43.40
2022-12-19T16:46:00.842Z,43.10
2022-12-19T16:48:29.801Z,43.50
2022-12-19T16:50:59.813Z,43.40
2022-12-19T16:53:26.495Z,43.70
2022-12-19T16:55:53.418Z,44.30
2022-12-19T16:58:24.064Z,44.20
2022-12-19T17:00:52.065Z,44.90
2022-12-19T17:03:36.122Z,45.20
2022-12-19T17:06:03.111Z,45.00
2022-12-19T17:08:29.835Z,44.30
2022-12-19T17:10:56.518Z,44.50
2022-12-19T17:13:23.336Z,44.40
2022-12-19T17:15:56.249Z,44.10
2022-12-19T17:18:23.619Z,44.50
2022-12-19T17:20:50.739Z,44.30
2022-12-19T17:23:18.459Z,44.30
2022-12-19T17:25:45.243Z,44.30
2022-12-19T17:28:12.777Z,44.30
2022-12-19T17:30:39.762Z,44.30
2022-12-19T17:33:06.551Z,44.30
2022-12-19T17:35:36.571Z,44.30
2022-12-19T17:38:04.784Z,44.40
2022-12-19T17:40:32.266Z,44.30
2022-12-19T17:42:59.002Z,44.30
2022-12-19T17:45:26.546Z,44.30
2022-12-19T17:48:00.372Z,44.20
2022-12-19T17:50:35.647Z,44.30
2022-12-19T17:53:02.355Z,44.20
2022-12-19T17:55:29.286Z,44.10
2022-12-19T17:57:56.076Z,44.10
2022-12-19T18:00:30.773Z,44.10
2022-12-19T18:02:58.415Z,44.00
2022-12-19T18:05:35.961Z,44.00
2022-12-19T18:08:03.030Z,44.10
2022-12-19T18:10:30.767Z,44.00
2022-12-19T18:12:58.511Z,44.60
2022-12-19T18:15:26.123Z,43.60
2022-12-19T18:17:52.867Z,43.80
2022-12-19T18:20:32.037Z,43.90
2022-12-19T18:22:59.602Z,43.80
2022-12-19T18:25:27.120Z,44.00
2022-12-19T18:27:53.870Z,43.70
2022-12-19T18:30:21.219Z,44.00
2022-12-19T18:32:48.963Z,43.80
2022-12-19T18:35:17.070Z,43.80
2022-12-19T18:37:43.992Z,44.00
2022-12-19T18:40:22.132Z,43.90
2022-12-19T18:42:51.376Z,44.00
2022-12-19T18:45:22.442Z,43.80
2022-12-19T18:47:51.632Z,44.00
2022-12-19T18:50:19.324Z,44.00
2022-12-19T18:52:46.381Z,44.00
2022-12-19T18:55:15.194Z,43.90
2022-12-19T18:57:42.973Z,43.90
2022-12-19T19:00:10.028Z,44.10
2022-12-19T19:02:36.854Z,44.00
2022-12-19T19:05:04.366Z,44.00
2022-12-19T19:07:31.051Z,44.00
2022-12-19T19:09:57.741Z,43.90
2022-12-19T19:12:26.739Z,44.10
2022-12-19T19:14:53.487Z,43.80
2022-12-19T19:17:24.932Z,44.10
2022-12-19T19:19:51.775Z,43.60
2022-12-19T19:22:18.670Z,43.70
2022-12-19T19:24:45.385Z,43.70
2022-12-19T19:27:12.066Z,43.60
2022-12-19T19:29:38.966Z,43.70
2022-12-19T19:32:05.758Z,43.80
2022-12-19T19:34:32.547Z,43.60
2022-12-19T19:37:00.609Z,43.90
2022-12-19T19:39:28.068Z,43.70
2022-12-19T19:41:56.286Z,43.80
2022-12-19T19:44:23.252Z,43.70
2022-12-19T19:46:50.029Z,43.80
2022-12-19T19:49:16.858Z,43.70
2022-12-19T19:51:43.575Z,43.80
2022-12-19T19:54:10.314Z,43.80
2022-12-19T19:56:37.024Z,43.70
2022-12-19T19:59:06.720Z,43.70
2022-12-19T20:01:34.514Z,43.60
2022-12-19T20:04:01.432Z,43.60
2022-12-19T20:06:28.192Z,43.60
2022-12-19T20:08:54.868Z,44.30
2022-12-19T20:11:22.598Z,43.70
2022-12-19T20:13:49.366Z,43.80
2022-12-19T20:16:16.959Z,43.70
2022-12-19T20:18:46.653Z,43.80
2022-12-19T20:21:14.040Z,43.80
2022-12-19T20:23:41.320Z,43.70
2022-12-19T20:26:08.062Z,43.80
2022-12-19T20:28:34.835Z,44.30
2022-12-19T20:31:01.665Z,43.70
2022-12-19T20:33:29.480Z,43.60
2022-12-19T20:35:56.724Z,43.60
2022-12-19T20:38:23.797Z,43.50
2022-12-19T20:40:56.001Z,43.60
2022-12-19T20:43:24.064Z,43.50
2022-12-19T20:45:50.887Z,43.60
2022-12-19T20:48:18.447Z,43.50
2022-12-19T20:50:45.142Z,43.50
2022-12-19T20:53:12.834Z,43.50
2022-12-19T20:55:39.531Z,43.60
2022-12-19T20:58:06.247Z,43.60
2022-12-19T21:00:33.098Z,43.70
2022-12-19T21:03:27.247Z,43.60
2022-12-19T21:05:54.541Z,43.70
2022-12-19T21:08:21.514Z,43.70
2022-12-19T21:10:48.378Z,43.60
2022-12-19T21:13:15.163Z,43.60
2022-12-19T21:15:42.271Z,43.50
2022-12-19T21:18:09.810Z,43.60
2022-12-19T21:20:37.092Z,43.60
2022-12-19T21:23:04.041Z,43.50
2022-12-19T21:25:30.815Z,43.60
2022-12-19T21:27:58.589Z,43.60
2022-12-19T21:30:25.336Z,43.60
2022-12-19T21:32:51.999Z,43.60
2022-12-19T21:35:18.708Z,43.60
2022-12-19T21:37:50.149Z,43.60
2022-12-19T21:40:17.281Z,43.60
2022-12-19T21:42:43.989Z,43.50
2022-12-19T21:45:10.927Z,43.50
2022-12-19T21:47:39.759Z,43.60
2022-12-19T21:50:07.559Z,43.50
2022-12-19T21:52:34.268Z,43.50
2022-12-19T21:55:00.944Z,43.50
2022-12-19T21:57:27.626Z,43.50
2022-12-19T21:59:54.302Z,43.50
2022-12-19T22:02:21.154Z,43.50
2022-12-19T22:04:50.964Z,43.60
2022-12-19T22:07:17.709Z,43.50
2022-12-19T22:09:44.370Z,43.50
2022-12-19T22:12:12.031Z,43.50
2022-12-19T22:14:38.708Z,43.50
2022-12-19T22:17:05.689Z,43.50
2022-12-19T22:19:32.359Z,43.50
2022-12-19T22:21:59.051Z,43.50
2022-12-19T22:24:25.733Z,43.60
2022-12-19T22:26:52.461Z,43.50
2022-12-19T22:29:19.129Z,43.50
2022-12-19T22:31:46.172Z,43.50
2022-12-19T22:34:14.090Z,43.60
2022-12-19T22:36:41.098Z,43.60
2022-12-19T22:39:11.680Z,43.60
2022-12-19T22:41:38.418Z,43.50
2022-12-19T22:44:05.307Z,43.60
2022-12-19T22:46:33.111Z,43.50
2022-12-19T22:49:00.563Z,44.20
2022-12-19T22:51:27.619Z,43.40
2022-12-19T22:53:54.442Z,43.50
2022-12-19T22:56:22.057Z,43.60
2022-12-19T22:58:49.265Z,43.40
2022-12-19T23:01:17.072Z,43.40
2022-12-19T23:03:44.571Z,43.40
2022-12-19T23:06:11.573Z,43.50
2022-12-19T23:08:38.417Z,43.40
2022-12-19T23:11:05.967Z,43.40
2022-12-19T23:13:32.719Z,43.50
2022-12-19T23:15:59.569Z,43.40
2022-12-19T23:18:26.359Z,43.40
2022-12-19T23:21:12.458Z,43.50
2022-12-19T23:23:42.754Z,43.40
2022-12-19T23:26:15.611Z,43.40
2022-12-19T23:28:43.532Z,43.50
2022-12-19T23:31:10.883Z,43.40
2022-12-19T23:33:37.630Z,43.40
2022-12-19T23:36:04.639Z,43.50
2022-12-19T23:38:31.379Z,43.50
2022-12-19T23:41:01.513Z,43.50
2022-12-19T23:43:28.442Z,43.50
2022-12-19T23:45:55.331Z,43.50
2022-12-19T23:48:25.675Z,43.50
2022-12-19T23:51:02.093Z,43.50
2022-12-19T23:53:28.987Z,44.10
2022-12-19T23:55:55.741Z,43.50
2022-12-19T23:58:24.711Z,43.50
